Aérodrome :
LOGIN :

S'inscrire | Disclaimer

   EN    FR    IT 

 










Légende :    VFR   VFR Marginal   IFR   IFR Intensif   IFR Très Intensif
Visi : 
Plafond : 
>= 8 km
>= 3000ft
5 à 8 km
1000 à 3000 ft
1500m à 5 km
500 à 1000 ft
800 à 1500m
200 à 500 ft
< 800m
< 200 ft
Symboles :   Orages  Brouillard  Fortes neiges  Fortes précipitations  Vent > 20 kt
SIGMETs :   Divers  Orages  Givrage  Turbulence  Onde Orograph.  Cendres Volcan.







- Altitude de l'aérodrome : 464 ft
- Code IATA : EVX
- Voir les cartes d'approche


LFOE - Evreux

DERNIER METAR :
  • 242300Z AUTO 29003KT 4300 BR NSC 13/12 Q1017 BECMG BKN003

METARs EXPIRÉS :
  • 242230Z AUTO 32002KT 4500 BR NSC 14/13 Q1017 BECMG BKN003
  • 242200Z AUTO 00000KT 4600 BR NSC 14/13 Q1017 TEMPO 8000 NSW BECMG BKN003
  • 242130Z AUTO 28003KT 5000 BR NSC 14/12 Q1018 BECMG BKN003
  • 242100Z AUTO 28003KT 7000 NSC 15/13 Q1018 NOSIG
  • 242030Z AUTO VRB02KT 9000 NSC 15/13 Q1017 NOSIG

TAF TAF LFOE
Valide du 24 à 21h jusqu'au 25 à 21h UTC


242000Z 2421/2521 34005KT 8000 NSC
BECMG 2423/2501 3000 BR BKN003
TEMPO 2502/2507 0400 FG VV///
BECMG 2507/2509 6000 NSW SCT010
BECMG 2510/2513 04010KT SCT025
TEMPO 2513/2520 VRB10G20KT 4000 -SHRA SCT040TCU
PROB40
TEMPO 2514/2518 VRB25G40KT 2000 TSRAGS BKN030CB
Pas de NOTAMs connus pour ce terrain.



MET'MAP, la Météo Aéronautique d'un coup d'oeil ! - Copyright ORBIFLY Décembre 2007 - Disclaimer

ORBIFLY MET'MAP TEAM :

Programmation & Développement : Alexandra Zaïnal
Conception & Développement : Baudouin d'Aumeries
Co-Programmation & Développement : Marc-Olivier Méhu
Soutien technique & logistique : Manuel Goepfert

Contact : metmap@orbifly.com




SOURCES & CREDITS :

   NOAA